Impacts TAF Board
For situational awareness. Not to be used for flight planning purposes.
IDs:

KSTL - St Louis/Lambert Int, MO, US

Issued at 1720 UTC 02 Oct 2022
Updated at 2023 UTC 02 Oct 2022
Potential Impact None Slight Moderate High
Time1951Z 02/21Z 02/22Z 02/23Z 03/00Z 03/01Z 03/02Z 03/03Z 03/04Z 03/05Z 03/06Z 03/07Z 03/08Z 03/09Z>>
Type OBS PRVL PRVL PRVL PRVL PRVL PRVL PRVL PRVL PRVL PRVL PRVL PRVL PRVL
VIS 10 >6 >6 >6 >6 >6 >6 >6 >6 >6 >6 >6 >6 >6
CIG -- -- -- -- -- -- -- -- -- -- -- -- -- --
Cover CLR SKC SKC SKC SKC SKC SKC SKC SKC SKC SKC SKC SKC SKC
FltCat VFR VFR VFR VFR VFR VFR VFR VFR VFR VFR VFR VFR VFR VFR
WX -- -- -- -- -- -- -- -- -- -- -- -- -- --
WDir VRB 50 50 50 50 50 50 50 50 50 50 50 50 50
WSpd 5 6 6 6 6 6 6 6 6 6 6 6 6 6
WGst -- -- -- -- -- -- -- -- -- -- -- -- -- --
WSHgt -- -- -- -- -- -- -- -- -- -- -- -- -- --
WSDir -- -- -- -- -- -- -- -- -- -- -- -- -- --
WSSpd -- -- -- -- -- -- -- -- -- -- -- -- -- --
Raw TAF
KSTL 021720Z 0218/0324 05006KT P6SM SKC

Raw METAR
KSTL 021951Z VRB05KT 10SM CLR 25/07 A3025 RMK AO2 SLP239 T02500072
KSTL 021851Z 04007KT 10SM CLR 24/08 A3027 RMK AO2 SLP246 T02390078
KSTL 021751Z 01011KT 10SM CLR 23/08 A3029 RMK AO2 SLP252 T02330078 10233 20100 58002

METAR Board
Radar Display
Forecast Discussion
For situational awareness. Not to be used for flight planning purposes.